METAR stanice u blizini

 

LYBE - Beograd / Surčin, Srbija
Ažurirano: 06/07/2020 06:30
Vedro
Vedro
 Pravac vetra Z
Vetar: Z 7 km/h
Temperatura: 19°C
Tačka rose: 16°C
Vlažnost: 83%
Pritisak: 1012 hPa
Pregled: Vedro
Vidljivost: greater than 10 km
2020/07/06 04:30 LYBE 060430Z 26004KT CAVOK 19/16 Q1012 NOSIG
LYBT - Beograd / Batajnica, Srbija
Ažurirano: 06/07/2020 06:30
Vedro
Vedro
 Pravac vetra J
Vetar: J 6 km/h
Temperatura: 17°C
Tačka rose: 15°C
Vlažnost: 88%
Pritisak: 1011 hPa
Pregled: Vedro
Vidljivost: greater than 10 km
2020/07/06 04:30 LYBT 060430Z 18003KT CAVOK 17/15 Q1011 NOSIG
LYVR - Vršac, Srbija
Ažurirano: 06/07/2020 06:30
Vedro
Vedro
 Pravac vetra varies
Vetar: varies 4 km/h
Temperatura: 18°C
Tačka rose: 17°C
Vlažnost: 94%
Pritisak: 1011 hPa
Pregled: Vedro
Vidljivost: greater than 10 km
2020/07/06 04:30 LYVR 060430Z VRB02KT CAVOK 18/17 Q1011
 
LYKV - Lađevci, Srbija
Ažurirano: 06/07/2020 06:30
Vedro
Vedro
 Pravac vetra calm
Vetar: Tišina
Temperatura: 17°C
Tačka rose: 17°C
Vlažnost: 100%
Pritisak: 1012 hPa
Pregled: Vedro
Vidljivost: greater than 10 km
2020/07/06 04:30 LYKV 060430Z 00000KT CAVOK 17/17 Q1012 NOSIG
LYNI - Niš, Srbija
Ažurirano: 06/07/2020 06:30
Vedro
Vedro
 Pravac vetra varies
Vetar: varies 4 km/h
Temperatura: 19°C
Tačka rose: 16°C
Vlažnost: 83%
Pritisak: 1011 hPa
Pregled: Vedro
Vidljivost: greater than 10 km
2020/07/06 04:30 LYNI 060430Z VRB02KT CAVOK 19/16 Q1011 NOSIG
BKPR - Priština, Srbija
Ažurirano: 06/07/2020 06:30
Partly Cloudy
Partly Cloudy
 Pravac vetra varies
Vetar: varies 6 km/h
Temperatura: 19°C
Tačka rose: 14°C
Vlažnost: 73%
Pritisak: 1012 hPa
Oblaci: Partly Cloudy
Vidljivost: 10 km
Cloud details: Few Clouds 914 m
Partly Cloudy 2438 m
2020/07/06 04:30 BKPR 060430Z VRB03KT 9999 FEW030 SCT080 19/14 Q1012 NOSIG
 
LHPP - Pecs / Pogany, Hungary
Ažurirano: 05/07/2020 19:45
NOT Current
Vedro
Vedro
 Pravac vetra S
Vetar: S 6 km/h
Temperatura: 28°C
Heat Index: 28°C
Tačka rose: 14°C
Vlažnost: 42%
Pritisak: 1014 hPa
Pregled: Vedro
Vidljivost: greater than 10 km
2020/07/05 17:45 LHPP 051745Z 35003KT CAVOK 28/14 Q1014
LHUD - Szeged, Hungary
Ažurirano: 04/07/2019 01:45
NOT Current
Vedro
Vedro
 Pravac vetra S
Vetar: S 7 km/h
Temperatura: 18°C
Tačka rose: 13°C
Vlažnost: 73%
Pritisak: 1019 hPa
Pregled: Vedro
Vidljivost: greater than 10 km
2019/07/03 23:45 LHUD 032345Z 35004KT CAVOK 18/13 Q1019
LRTR - Timisoara, Romania
Ažurirano: 06/07/2020 06:30
Vedro
Vedro
 Pravac vetra ISI
Vetar: ISI 4 km/h
Temperatura: 19°C
Tačka rose: 17°C
Vlažnost: 88%
Pritisak: 1011 hPa
Pregled: Vedro
Vidljivost: greater than 10 km
2020/07/06 04:30 LRTR 060430Z 07002KT CAVOK 19/17 Q1011
 
LRCV - Craiova, Romania
Ažurirano: 06/07/2020 06:30
Nearby showers, Delimično oblačno
Nearby showers, Delimično oblačno
 Pravac vetra I
Vetar: I 6 km/h
Temperatura: 22°C
Tačka rose: 19°C
Vlažnost: 83%
Pritisak: 1011 hPa
Pregled: Nearby Showers
Oblaci: Partly Cloudy
Vidljivost: 10 km
Cloud details: Partly Cloudy 1219 m
2020/07/06 04:30 LRCV 060430Z 10003KT 040V130 9999 VCSH SCT040CB 22/19 Q1011
LBSF - Sofia, Bulgaria
Ažurirano: 06/07/2020 06:30
Few Clouds
Few Clouds
 Pravac vetra I
Vetar: I 6 km/h
Temperatura: 18°C
Tačka rose: 17°C
Vlažnost: 94%
Pritisak: 1012 hPa
Oblaci: Few Clouds
Vidljivost: 7 km
Cloud details: Few Clouds 457 m
2020/07/06 04:30 LBSF 060430Z 08003KT 7000 FEW015 18/17 Q1012 TEMPO 5000 BR
LWSK - Skoplje, Makedonija
Ažurirano: 06/07/2020 06:30
Few Clouds
Few Clouds
 Pravac vetra calm
Vetar: Tišina
Temperatura: 21°C
Tačka rose: 17°C
Vlažnost: 78%
Pritisak: 1010 hPa
Oblaci: Few Clouds
Vidljivost: 10 km
Cloud details: Few Clouds 1524 m
2020/07/06 04:30 LWSK 060430Z 00000KT 9999 FEW050 21/17 Q1010 NOSIG
 
LYPG - Podgorica, Crna Gora
Ažurirano: 06/07/2020 06:30
Vedro
Vedro
 Pravac vetra S
Vetar: S 15 km/h
Temperatura: 27°C
Heat Index: 27°C
Tačka rose: 13°C
Vlažnost: 42%
Pritisak: 1008 hPa
Pregled: Vedro
Vidljivost: greater than 10 km
2020/07/06 04:30 LYPG 060430Z 01008KT 350V120 CAVOK 27/13 Q1008 NOSIG
LQSA - Sarajevo, Bosna i Hercegovina
Ažurirano: 05/07/2020 16:30
NOT Current
Mostly Cloudy
Mostly Cloudy
 Pravac vetra SSZ
Vetar: SSZ 11 km/h
Temperatura: 25°C
Tačka rose: 16°C
Vlažnost: 57%
Pritisak: 1016 hPa
Oblaci: Mostly Cloudy
Vidljivost: 10 km
Cloud details: Few Clouds 1219 m
Mostly Cloudy 1524 m
2020/07/05 14:30 LQSA 051430Z 34006KT 320V030 9999 FEW040TCU BKN050 25/16 Q1016 TEMPO SHRA
LDOS - Osijek, Hrvatksa
Ažurirano: 06/07/2020 06:30
Vedro
Vedro
 Pravac vetra Z
Vetar: Z 7 km/h
Temperatura: 16°C
Tačka rose: 14°C
Vlažnost: 88%
Pritisak: 1012 hPa
Pregled: Vedro
Vidljivost: greater than 10 km
2020/07/06 04:30 LDOS 060430Z 26004KT CAVOK 16/14 Q1012